Wednesday, September 24, 2014, 12:25 AM EDT
Back to Local

KMTP, Montauk Airport

Location: Montauk, NY, United States Lat: 41.067
Local Time: 12:25 AM EDT ( 4:25 GMT) Lon: -71.917
Time Zone: US/Eastern Elev: 6 ft

Show me the last for .
Show Coded

Time T Td Feel RH Dir Speed Gust Alt SLP Vis Weather Sky Remarks
2014-09-23 23:54 55 51 - 86 - Calm - 30.44 30.44 0 None
2014-09-23 21:54 56 51 - 83 - Calm - 30.42 30.41 0 None
2014-09-23 20:54 56 51 - 83 - Calm - 30.40 30.39 0 None
2014-09-23 19:54 61 52 - 72 - Calm - 30.36 30.36 0 6-hr Min Temp (8pm): 61.0°F
6-hr Max Temp (8pm): 66.0°F
2014-09-23 18:54 62 51 - 67 - Calm - 30.35 30.34 0 None
2014-09-23 17:54 65 50 - 58 220° 3 - 30.33 30.33 0 None
2014-09-23 16:54 66 48 - 52 210° 3 - 30.33 30.32 0 None
2014-09-23 15:54 65 47 - 52 Variable 3 - 30.33 30.32 0 None
2014-09-23 14:54 65 46 - 50 Variable 3 - 30.33 30.33 0 None
2014-09-23 13:54 64 42 - 44 Variable 6 - 30.33 30.33 0 6-hr Min Temp (2pm): 57.0°F
6-hr Max Temp (2pm): 64.9°F
2014-09-23 12:54 62 42 - 47 - - - 30.33 30.33 0 None
2014-09-23 11:54 62 41 - 45 340° 3 - 30.33 30.32 0 None
2014-09-23 10:54 60 40 - 47 300° 6 - 30.32 30.32 0 None
2014-09-23 09:54 60 40 - 47 340° 5 - 30.32 30.32 0 None
2014-09-23 08:54 58 39 - 49 360° 6 - 30.31 30.31 0 None
2014-09-23 07:54 57 39 - 50 340° 7 - 30.28 30.28 0 6-hr Min Temp (8am): 55.0°F
6-hr Max Temp (8am): 57.0°F
2014-09-23 06:54 55 41 - 59 Variable 5 - 30.26 30.26 0 None
2014-09-23 05:54 55 40 - 56 330° 9 - 30.23 30.23 0 None
2014-09-23 04:54 56 41 - 57 340° 6 - 30.22 30.21 0 None
2014-09-23 03:54 56 41 - 57 330° 7 - 30.20 30.19 0 None
2014-09-23 02:54 56 41 - 57 330° 12 - 30.18 30.17 0 None
2014-09-23 01:54 57 41 - 54 330° 13 - 30.18 30.17 0 6-hr Min Temp (2am): 57.0°F
6-hr Max Temp (2am): 66.9°F
2014-09-23 00:54 57 40 - 52 320° 12 21 30.17 30.16 0 24-hr Min Temp (1am): 57.0°F
24-hr Max Temp (1am): 73.0°F

Support USWX by starting your Amazon purchase here.